Time;durP1;ratioP1;P1;durP2;ratioP2;P2;SDS_P1;SDS_P2;PMS_P1;PMS_P2;Temp;Humidity;BMP_temperature;BMP_pressure;BME280_temperature;BME280_humidity;BME280_pressure;Samples;Min_cycle;Max_cycle;Signal;HPM_P1;HPM_P2
2022/07/02 00:01:59;;;;;;;3.55;2.25;;;;;;;17.20;78.21;101047.50;1665872;85;21057;-43
2022/07/02 00:04:31;;;;;;;3.50;2.60;;;;;;;17.13;78.18;101049.95;1654046;85;21009;-43
2022/07/02 00:06:57;;;;;;;9.73;2.87;;;;;;;17.04;77.77;101055.05;1662989;85;21538;-41
2022/07/02 00:09:27;;;;;;;6.87;2.60;;;;;;;16.97;77.23;101061.39;1660254;85;21011;-41
2022/07/02 00:11:59;;;;;;;5.83;2.27;;;;;;;16.91;77.16;101066.38;1661389;85;21004;-41
2022/07/02 00:14:26;;;;;;;6.90;2.35;;;;;;;16.83;77.08;101069.72;1654978;85;21233;-41
2022/07/02 00:16:54;;;;;;;6.15;2.17;;;;;;;16.72;77.58;101075.76;1661615;84;20960;-41
2022/07/02 00:19:22;;;;;;;4.97;2.47;;;;;;;16.60;77.88;101077.90;1671272;84;21573;-43
2022/07/02 00:21:48;;;;;;;3.17;2.12;;;;;;;16.51;78.58;101076.45;1661339;85;20957;-41
2022/07/02 00:24:15;;;;;;;7.12;2.55;;;;;;;16.43;78.44;101074.55;1662451;85;21016;-41
2022/07/02 00:26:50;;;;;;;4.10;2.20;;;;;;;16.34;78.50;101074.39;1651247;85;21451;-43
2022/07/02 00:29:24;;;;;;;;;;;;;;;16.26;78.91;101075.08;1669266;84;21571;-43
2022/07/02 00:31:50;;;;;;;2.33;2.15;;;;;;;16.19;79.15;101078.80;1663959;85;20441;-41
2022/07/02 00:34:17;;;;;;;10.68;2.45;;;;;;;16.15;79.12;101079.80;1648920;85;20968;-41
2022/07/02 00:36:44;;;;;;;5.90;2.27;;;;;;;16.13;79.40;101082.45;1668465;84;21704;-43
2022/07/02 00:39:11;;;;;;;8.55;2.77;;;;;;;16.13;78.34;101079.00;1672683;84;21070;-43
2022/07/02 00:41:38;;;;;;;9.03;2.20;;;;;;;16.18;78.15;101087.54;1666363;84;21044;-41
2022/07/02 00:44:05;;;;;;;11.22;2.33;;;;;;;16.21;78.36;101092.66;1660580;85;20992;-41
2022/07/02 00:46:33;;;;;;;13.83;2.30;;;;;;;16.18;78.56;101090.16;1660459;85;21055;-41
2022/07/02 00:49:00;;;;;;;12.43;2.30;;;;;;;16.13;78.70;101095.98;1668429;84;20976;-41
2022/07/02 00:51:27;;;;;;;5.35;2.12;;;;;;;16.06;78.63;101100.09;1663797;85;21213;-41
2022/07/02 00:53:54;;;;;;;5.80;2.35;;;;;;;15.99;78.81;101098.55;1663314;85;21558;-41
2022/07/02 00:56:21;;;;;;;7.92;2.60;;;;;;;15.94;79.09;101106.98;1651051;85;21000;-41
2022/07/02 00:58:47;;;;;;;7.80;2.02;;;;;;;15.91;79.65;101111.00;1668144;84;21066;-41
2022/07/02 01:01:14;;;;;;;12.50;2.50;;;;;;;15.87;79.02;101115.41;1661000;85;21073;-41
2022/07/02 01:03:43;;;;;;;11.00;2.45;;;;;;;15.86;79.30;101119.39;1663242;85;21409;-41
2022/07/02 01:06:11;;;;;;;4.15;2.40;;;;;;;15.85;79.43;101112.47;1651105;85;21000;-41
2022/07/02 01:11:25;;;;;;;6.85;2.37;;;;;;;15.73;79.84;101117.13;1663223;85;21004;-41
2022/07/02 01:13:54;;;;;;;13.98;1.95;;;;;;;15.65;79.83;101116.52;1660469;85;21055;-41
2022/07/02 01:16:21;;;;;;;15.85;2.37;;;;;;;15.62;79.12;101117.91;1662315;85;21076;-42
2022/07/02 01:18:47;;;;;;;13.25;2.58;;;;;;;15.59;78.64;101116.70;1668585;84;20989;-41
2022/07/02 01:21:14;;;;;;;7.47;2.35;;;;;;;15.56;79.03;101119.40;1643416;85;21000;-41
2022/07/02 01:23:40;;;;;;;12.80;2.30;;;;;;;15.51;79.29;101118.22;1666314;85;21601;-41
2022/07/02 01:26:08;;;;;;;5.87;2.20;;;;;;;15.41;79.26;101127.19;1627839;85;20949;-41
2022/07/02 01:28:35;;;;;;;10.53;2.45;;;;;;;15.30;79.73;101128.81;1668704;84;21144;-41
2022/07/02 01:31:02;;;;;;;10.63;2.17;;;;;;;15.18;80.65;101142.58;1672666;84;21032;-41
2022/07/02 01:33:31;;;;;;;6.67;2.00;;;;;;;15.08;80.37;101143.73;1653880;85;21032;-41
2022/07/02 01:35:58;;;;;;;8.95;2.15;;;;;;;15.00;80.79;101140.02;1662001;85;20993;-41
2022/07/02 01:38:25;;;;;;;6.87;2.12;;;;;;;14.93;80.68;101144.52;1662731;84;21502;-41
2022/07/02 01:41:38;;;;;;;5.42;2.20;;;;;;;14.87;80.94;101145.13;1670859;84;22233;-41
2022/07/02 01:43:21;;;;;;;6.70;2.08;;;;;;;14.77;80.57;101137.98;1655567;85;21518;-42
2022/07/02 01:45:47;;;;;;;10.40;2.30;;;;;;;14.71;79.85;101142.05;1660500;85;20980;-42
2022/07/02 01:48:14;;;;;;;8.33;2.08;;;;;;;14.69;78.82;101143.38;1660717;84;20996;-43
2022/07/02 01:50:40;;;;;;;7.90;2.12;;;;;;;14.68;78.76;101147.31;1647055;85;20984;-42
2022/07/02 01:53:07;;;;;;;6.53;2.30;;;;;;;14.68;78.41;101148.18;1664774;84;21272;-42
2022/07/02 01:55:34;;;;;;;3.72;2.10;;;;;;;14.66;78.45;101144.30;1658384;84;21511;-42
2022/07/02 01:58:01;;;;;;;6.05;1.80;;;;;;;14.63;79.18;101143.50;1667967;84;20995;-44
2022/07/02 02:00:29;;;;;;;7.97;2.30;;;;;;;14.57;79.41;101151.47;1681538;84;20952;-42
2022/07/02 02:02:56;;;;;;;7.72;2.33;;;;;;;14.47;79.54;101156.05;1675533;84;20925;-42
2022/07/02 02:05:24;;;;;;;13.03;2.47;;;;;;;14.38;79.77;101157.11;1673465;85;21114;-42
2022/07/02 02:07:50;;;;;;;9.53;2.20;;;;;;;14.30;80.14;101157.31;1669258;84;21561;-42
2022/07/02 02:10:17;;;;;;;9.23;1.95;;;;;;;14.22;81.00;101169.20;1669921;84;21012;-42
2022/07/02 02:12:44;;;;;;;6.40;2.35;;;;;;;14.17;81.71;101167.58;1665014;84;20995;-42
2022/07/02 02:15:11;;;;;;;11.93;2.22;;;;;;;14.12;81.96;101167.67;1663385;84;21052;-42
2022/07/02 02:17:38;;;;;;;7.67;2.02;;;;;;;14.14;82.92;101176.76;1665260;84;21158;-42
2022/07/02 02:20:08;;;;;;;5.60;2.15;;;;;;;14.10;83.55;101169.45;1678056;84;21055;-42
2022/07/02 02:22:35;;;;;;;8.83;2.58;;;;;;;14.07;83.66;101174.30;1650492;84;21515;-42
2022/07/02 02:25:03;;;;;;;5.45;2.60;;;;;;;14.08;83.94;101184.25;1663913;85;21027;-42
2022/07/02 02:27:29;;;;;;;9.15;2.70;;;;;;;14.09;84.76;101183.36;1673193;84;21072;-42
2022/07/02 02:29:56;;;;;;;7.62;2.02;;;;;;;14.10;84.80;101193.34;1673668;84;22388;-42
2022/07/02 02:32:22;;;;;;;5.47;2.70;;;;;;;14.07;85.41;101196.42;1664996;85;20929;-42
2022/07/02 02:34:49;;;;;;;13.88;2.40;;;;;;;14.05;85.64;101199.51;1655581;84;22361;-42
2022/07/02 02:37:16;;;;;;;5.62;2.20;;;;;;;14.05;85.14;101200.81;1669220;84;20980;-42
2022/07/02 02:39:43;;;;;;;15.50;2.35;;;;;;;14.10;83.50;101205.06;1670163;84;21053;-42
2022/07/02 02:42:10;;;;;;;8.00;2.55;;;;;;;14.20;82.86;101210.03;1659699;84;21152;-42
2022/07/02 02:44:37;;;;;;;5.22;2.27;;;;;;;14.30;80.67;101205.92;1697998;83;21000;-42
2022/07/02 02:47:05;;;;;;;13.55;2.37;;;;;;;14.41;80.46;101209.16;1704761;82;20937;-42
2022/07/02 02:49:31;;;;;;;4.92;2.17;;;;;;;14.53;78.70;101216.27;1703631;82;20976;-42
2022/07/02 02:51:58;;;;;;;4.35;2.10;;;;;;;14.65;77.21;101212.06;1699992;82;21050;-42
2022/07/02 02:54:25;;;;;;;5.08;1.87;;;;;;;14.75;76.25;101217.52;1699953;82;21106;-42
2022/07/02 02:56:52;;;;;;;7.97;2.00;;;;;;;14.83;75.19;101215.16;1656030;85;21113;-42
2022/07/02 02:59:18;;;;;;;7.40;2.10;;;;;;;14.91;74.43;101218.46;1667630;85;20945;-42
2022/07/02 03:01:45;;;;;;;9.13;2.15;;;;;;;14.99;74.24;101220.85;1701249;82;20901;-42
2022/07/02 03:04:12;;;;;;;9.48;2.17;;;;;;;15.03;74.15;101223.79;1699012;83;21064;-42
2022/07/02 03:06:38;;;;;;;3.42;2.15;;;;;;;15.06;74.10;101228.95;1656404;85;21117;-42
2022/07/02 03:09:05;;;;;;;11.08;2.40;;;;;;;15.08;73.25;101223.25;1673687;85;21019;-42
2022/07/02 03:11:32;;;;;;;4.10;1.72;;;;;;;15.16;72.79;101227.81;1702262;82;21009;-42
2022/07/02 03:13:59;;;;;;;6.15;2.10;;;;;;;15.23;72.58;101228.52;1665662;85;20963;-42
2022/07/02 03:16:27;;;;;;;9.73;2.55;;;;;;;15.29;72.20;101230.13;1666759;85;20991;-42
2022/07/02 03:18:54;;;;;;;9.38;2.22;;;;;;;15.36;72.62;101232.97;1666407;85;21461;-42
2022/07/02 03:21:21;;;;;;;7.53;2.22;;;;;;;15.41;70.98;101232.40;1668829;85;21702;-42
2022/07/02 03:23:48;;;;;;;9.23;2.35;;;;;;;15.49;71.41;101238.26;1668046;85;20986;-42
2022/07/02 03:26:15;;;;;;;10.53;2.50;;;;;;;15.57;71.01;101234.61;1688924;82;21501;-42
2022/07/02 03:28:42;;;;;;;7.40;2.70;;;;;;;15.63;69.72;101240.95;1714676;82;20972;-42
2022/07/02 03:31:09;;;;;;;14.50;2.22;;;;;;;15.69;69.91;101239.95;1720259;82;21706;-42
2022/07/02 03:33:35;;;;;;;6.58;2.47;;;;;;;15.74;69.92;101238.90;1691180;82;20916;-42
2022/07/02 03:36:04;;;;;;;7.33;2.50;;;;;;;15.82;69.86;101243.07;1662020;85;21046;-42
2022/07/02 03:38:30;;;;;;;12.78;3.05;;;;;;;15.87;69.19;101239.41;1704268;81;21030;-42
2022/07/02 03:40:58;;;;;;;18.05;3.00;;;;;;;15.96;67.79;101246.16;1725349;81;20947;-42
2022/07/02 03:43:25;;;;;;;3.83;2.50;;;;;;;16.07;67.75;101249.34;1676219;84;21216;-42
2022/07/02 03:45:52;;;;;;;6.10;2.85;;;;;;;16.26;67.54;101254.00;1678341;84;20942;-42
2022/07/02 03:48:18;;;;;;;14.55;3.22;;;;;;;16.51;64.88;101238.89;1676408;84;20993;-42
2022/07/02 03:50:45;;;;;;;10.93;2.85;;;;;;;16.77;62.09;101245.92;1675938;84;20935;-42
2022/07/02 03:53:13;;;;;;;17.12;3.15;;;;;;;17.02;63.10;101240.37;1677321;84;21019;-42
2022/07/02 03:55:39;;;;;;;10.70;3.70;;;;;;;17.27;60.89;101241.72;1681683;84;21249;-42
2022/07/02 03:58:06;;;;;;;9.50;3.20;;;;;;;17.49;59.59;101248.37;1681476;84;20942;-42
2022/07/02 04:00:33;;;;;;;9.83;3.10;;;;;;;17.67;60.20;101252.09;1679910;84;21026;-42
2022/07/02 04:03:00;;;;;;;13.60;3.62;;;;;;;17.88;59.40;101254.02;1683975;84;21079;-42
2022/07/02 04:05:28;;;;;;;10.18;3.30;;;;;;;18.04;58.86;101256.48;1663342;84;20963;-42
2022/07/02 04:07:55;;;;;;;9.85;3.70;;;;;;;18.22;59.42;101256.27;1676944;84;21042;-42
2022/07/02 04:10:22;;;;;;;10.08;3.40;;;;;;;18.41;56.09;101258.16;1674312;83;21509;-42
2022/07/02 04:12:49;;;;;;;7.28;3.50;;;;;;;18.57;55.20;101255.81;1670300;84;20967;-42
2022/07/02 04:15:16;;;;;;;8.20;3.65;;;;;;;18.72;55.98;101256.98;1670636;84;20961;-42
2022/07/02 04:17:43;;;;;;;7.08;3.47;;;;;;;18.87;55.19;101258.13;1679386;83;20995;-42
2022/07/02 04:20:11;;;;;;;11.33;4.10;;;;;;;19.01;55.20;101259.34;1667245;84;21174;-42
2022/07/02 04:22:37;;;;;;;16.55;3.60;;;;;;;19.13;53.67;101265.41;1669633;84;21602;-42
2022/07/02 04:25:06;;;;;;;9.43;3.90;;;;;;;19.26;54.14;101263.56;1679484;84;21000;-42
2022/07/02 04:27:33;;;;;;;19.27;4.00;;;;;;;19.42;52.49;101276.44;1634764;85;20953;-43
2022/07/02 04:30:00;;;;;;;13.28;4.12;;;;;;;19.53;51.85;101272.88;1680073;84;21052;-43
2022/07/02 04:32:26;;;;;;;12.82;3.72;;;;;;;19.59;51.70;101275.71;1671240;84;21245;-42
2022/07/02 04:34:53;;;;;;;8.40;3.95;;;;;;;19.75;52.97;101280.30;1667874;84;21003;-43
2022/07/02 04:37:20;;;;;;;7.50;3.83;;;;;;;19.96;52.37;101286.40;1674043;84;21051;-43
2022/07/02 04:39:46;;;;;;;9.38;3.60;;;;;;;20.08;49.94;101288.48;1635446;85;21091;-43
2022/07/02 04:42:13;;;;;;;11.65;4.05;;;;;;;20.17;49.48;101295.07;1665343;84;20988;-43
2022/07/02 04:44:40;;;;;;;9.60;3.50;;;;;;;20.20;47.97;101303.29;1657832;84;21927;-43
2022/07/02 04:47:06;;;;;;;8.65;3.62;;;;;;;20.24;49.49;101295.20;1656024;84;21181;-43
2022/07/02 04:49:34;;;;;;;6.97;3.40;;;;;;;20.33;48.86;101307.52;1653397;84;20953;-43
2022/07/02 04:52:02;;;;;;;13.93;4.25;;;;;;;20.45;49.21;101303.47;1661743;85;20985;-43
2022/07/02 04:54:28;;;;;;;16.25;3.83;;;;;;;20.62;48.22;101310.11;1659159;85;20998;-43
2022/07/02 04:56:55;;;;;;;13.25;3.83;;;;;;;20.75;46.20;101312.14;1679044;84;21037;-43
2022/07/02 04:59:22;;;;;;;8.28;2.95;;;;;;;20.78;45.19;101311.99;1655445;84;21008;-43
2022/07/02 05:01:48;;;;;;;12.35;2.75;;;;;;;20.83;45.49;101308.70;1659969;84;22355;-43
2022/07/02 05:04:15;;;;;;;5.80;2.67;;;;;;;20.85;45.42;101308.64;1657223;85;20977;-43
2022/07/02 05:06:42;;;;;;;8.55;2.60;;;;;;;20.84;44.78;101306.94;1661312;84;20953;-43
2022/07/02 05:09:08;;;;;;;12.53;3.02;;;;;;;20.89;44.35;101310.19;1659415;84;21145;-43
2022/07/02 05:11:36;;;;;;;15.30;2.92;;;;;;;20.96;43.80;101313.77;1660563;84;21544;-43
2022/07/02 05:14:02;;;;;;;9.90;2.72;;;;;;;21.10;45.15;101317.04;1643684;84;21028;-43
2022/07/02 05:16:29;;;;;;;6.25;2.75;;;;;;;21.29;45.63;101310.00;1659250;85;21059;-43
2022/07/02 05:18:56;;;;;;;7.17;2.50;;;;;;;21.53;44.99;101317.97;1659768;85;21028;-43
2022/07/02 05:21:23;;;;;;;8.98;2.40;;;;;;;21.73;44.15;101303.44;1660760;85;21167;-44
2022/07/02 05:23:49;;;;;;;11.22;2.83;;;;;;;21.85;43.07;101304.55;1660714;84;20922;-43
2022/07/02 05:26:16;;;;;;;12.50;2.80;;;;;;;21.91;43.38;101302.45;1648296;85;20996;-43
2022/07/02 05:28:43;;;;;;;8.23;2.40;;;;;;;22.01;41.81;101307.25;1656975;85;21044;-43
2022/07/02 05:31:10;;;;;;;13.75;2.87;;;;;;;22.03;40.80;101309.34;1655206;84;21000;-43
2022/07/02 05:33:36;;;;;;;10.78;2.50;;;;;;;21.99;41.13;101302.05;1649873;85;21153;-44
2022/07/02 05:36:04;;;;;;;30.27;2.98;;;;;;;22.05;41.84;101306.98;1660280;84;20961;-44
2022/07/02 05:38:30;;;;;;;7.60;2.50;;;;;;;22.19;42.09;101305.41;1644127;85;21550;-43
2022/07/02 05:40:57;;;;;;;5.40;2.40;;;;;;;22.30;41.23;101308.30;1663984;84;20964;-43
2022/07/02 05:43:24;;;;;;;13.20;2.75;;;;;;;22.37;42.05;101304.41;1657892;84;21016;-43
2022/07/02 05:45:50;;;;;;;12.43;2.77;;;;;;;22.54;42.67;101310.55;1658911;84;21174;-44
2022/07/02 05:48:17;;;;;;;6.67;2.00;;;;;;;22.70;41.15;101309.70;1656823;85;21051;-44
2022/07/02 05:50:44;;;;;;;11.83;2.40;;;;;;;22.76;39.79;101307.57;1634463;85;21000;-44
2022/07/02 05:53:11;;;;;;;9.70;3.00;;;;;;;22.81;42.45;101309.47;1672028;85;21005;-43
2022/07/02 05:55:37;;;;;;;6.97;2.55;;;;;;;22.94;40.03;101306.98;1664092;84;20992;-43
2022/07/02 05:58:04;;;;;;;8.70;1.95;;;;;;;23.06;39.12;101296.64;1658149;84;21262;-44
2022/07/02 06:00:31;;;;;;;20.43;2.42;;;;;;;23.08;38.47;101303.55;1657860;85;21096;-44
2022/07/02 06:02:58;;;;;;;12.58;2.33;;;;;;;23.06;37.23;101301.92;1657842;85;21000;-43
2022/07/02 06:08:10;;;;;;;6.75;1.80;;;;;;;22.82;37.48;101311.63;1659091;85;21040;-44
2022/07/02 06:10:37;;;;;;;11.28;2.50;;;;;;;22.70;37.10;101304.42;1660459;84;21872;-44
2022/07/02 06:13:04;;;;;;;15.60;1.62;;;;;;;22.62;38.15;101311.44;1660657;85;20996;-43
2022/07/02 06:15:31;;;;;;;6.53;1.70;;;;;;;22.67;38.01;101314.22;1657321;85;20945;-43
2022/07/02 06:18:01;;;;;;;8.50;2.08;;;;;;;22.72;36.87;101308.66;1663633;84;21369;-43
2022/07/02 06:20:28;;;;;;;6.47;1.80;;;;;;;22.72;37.87;101312.61;1662664;84;20993;-43
2022/07/02 06:22:55;;;;;;;12.05;1.90;;;;;;;22.78;38.16;101304.37;1666451;84;21329;-43
2022/07/02 06:25:22;;;;;;;6.37;1.62;;;;;;;22.84;38.64;101315.03;1668435;84;21096;-44
2022/07/02 06:27:49;;;;;;;8.58;1.70;;;;;;;22.92;36.59;101315.46;1651855;85;21562;-44
2022/07/02 06:30:16;;;;;;;7.40;2.00;;;;;;;22.92;37.30;101318.10;1667765;84;20974;-44
2022/07/02 06:32:43;;;;;;;11.48;1.70;;;;;;;22.94;37.38;101312.27;1656706;85;21011;-44
2022/07/02 06:35:10;;;;;;;7.62;1.95;;;;;;;23.05;37.23;101314.28;1650253;84;21963;-44
2022/07/02 06:37:36;;;;;;;9.10;1.37;;;;;;;23.16;36.53;101318.08;1658659;84;21005;-44
2022/07/02 06:40:06;;;;;;;5.55;1.60;;;;;;;23.25;38.04;101317.59;1660616;84;21309;-44
2022/07/02 06:42:33;;;;;;;10.43;1.65;;;;;;;23.37;37.70;101305.45;1663522;85;21538;-44
2022/07/02 06:45:00;;;;;;;5.60;1.72;;;;;;;23.48;35.40;101309.62;1669379;84;21064;-43
2022/07/02 06:47:27;;;;;;;6.95;1.80;;;;;;;23.33;33.97;101300.81;1667268;84;21053;-44
2022/07/02 06:49:55;;;;;;;7.58;1.82;;;;;;;23.18;36.03;101305.64;1656450;84;20993;-43
2022/07/02 06:52:23;;;;;;;6.28;1.42;;;;;;;23.16;35.37;101312.34;1668163;84;20992;-43
2022/07/02 06:54:49;;;;;;;5.95;1.70;;;;;;;23.10;33.96;101303.44;1664163;85;21043;-43
2022/07/02 06:57:16;;;;;;;6.70;1.62;;;;;;;22.96;33.83;101304.23;1660799;84;21061;-43
2022/07/02 06:59:43;;;;;;;8.93;1.75;;;;;;;22.78;34.40;101314.06;1665292;84;21260;-43
2022/07/02 07:02:10;;;;;;;5.75;1.57;;;;;;;22.66;35.17;101308.55;1665522;84;21036;-43
2022/07/02 07:04:37;;;;;;;6.37;1.62;;;;;;;22.62;35.59;101308.35;1664079;85;21051;-43
2022/07/02 07:07:07;;;;;;;6.35;1.65;;;;;;;22.61;35.41;101306.66;1661297;84;20968;-43
2022/07/02 07:09:34;;;;;;;9.98;1.52;;;;;;;22.59;35.10;101301.90;1664990;84;20937;-43
2022/07/02 07:12:06;;;;;;;4.22;1.60;;;;;;;22.61;35.41;101303.15;1662395;84;21178;-43
2022/07/02 07:14:34;;;;;;;11.57;1.80;;;;;;;22.73;34.09;101298.97;1665775;84;20960;-43
2022/07/02 07:17:01;;;;;;;7.10;1.67;;;;;;;22.66;36.25;101309.01;1663929;85;21434;-43
2022/07/02 07:19:28;;;;;;;7.30;1.60;;;;;;;22.68;35.47;101304.49;1675399;84;20972;-43
2022/07/02 07:21:56;;;;;;;6.33;1.98;;;;;;;22.68;35.02;101304.05;1665482;84;21037;-43
2022/07/02 07:24:23;;;;;;;9.78;2.30;;;;;;;22.72;35.84;101310.46;1666187;85;21265;-43
2022/07/02 07:26:49;;;;;;;12.05;1.90;;;;;;;22.78;35.54;101308.79;1655878;84;21047;-43
2022/07/02 07:29:16;;;;;;;6.20;1.70;;;;;;;22.76;35.37;101308.89;1664175;85;21012;-43
2022/07/02 07:31:43;;;;;;;11.70;1.67;;;;;;;22.87;35.43;101316.20;1667958;84;21043;-43
2022/07/02 07:34:10;;;;;;;6.95;1.77;;;;;;;22.96;35.94;101314.34;1652823;84;21028;-44
2022/07/02 07:36:37;;;;;;;15.18;2.08;;;;;;;23.10;35.32;101315.32;1667121;85;21775;-43
2022/07/02 07:39:03;;;;;;;6.85;1.80;;;;;;;23.20;35.96;101309.90;1665558;84;21055;-43
2022/07/02 07:41:32;;;;;;;10.55;1.87;;;;;;;23.39;36.34;101299.61;1670714;84;21702;-43
2022/07/02 07:44:00;;;;;;;4.35;2.20;;;;;;;23.56;35.32;101301.69;1665137;84;21581;-43
2022/07/02 07:46:27;;;;;;;4.37;1.70;;;;;;;23.65;33.92;101302.48;1665112;84;21092;-43
2022/07/02 07:48:54;;;;;;;12.98;2.17;;;;;;;23.48;35.92;101309.62;1657799;85;21222;-43
2022/07/02 07:51:20;;;;;;;9.28;2.10;;;;;;;23.61;35.33;101309.73;1668155;84;21017;-43
2022/07/02 07:53:47;;;;;;;9.03;3.80;;;;;;;23.66;35.20;101312.11;1668229;84;21043;-43
2022/07/02 07:56:16;;;;;;;10.23;2.58;;;;;;;23.80;34.33;101317.38;1654895;84;21483;-43
2022/07/02 07:58:42;;;;;;;8.88;1.65;;;;;;;23.85;35.12;101326.82;1665404;84;20933;-43
2022/07/02 08:01:11;;;;;;;3.58;1.32;;;;;;;23.90;34.27;101324.77;1670291;85;21965;-43
2022/07/02 08:03:38;;;;;;;8.05;1.40;;;;;;;24.02;32.21;101317.42;1668055;84;21000;-43
2022/07/02 08:06:05;;;;;;;5.42;1.57;;;;;;;24.12;33.84;101324.31;1655608;84;21257;-44
2022/07/02 08:08:32;;;;;;;9.18;1.40;;;;;;;24.21;33.14;101324.22;1645036;84;21011;-44
2022/07/02 08:10:59;;;;;;;4.17;1.32;;;;;;;24.26;33.23;101326.09;1667097;84;21123;-43
2022/07/02 08:13:26;;;;;;;4.53;1.60;;;;;;;24.13;32.75;101322.05;1666931;85;21123;-44
2022/07/02 08:15:53;;;;;;;1.32;1.25;;;;;;;24.04;34.63;101327.42;1661359;84;21039;-44
2022/07/02 08:18:21;;;;;;;6.58;1.95;;;;;;;24.24;34.05;101327.50;1658090;85;20996;-44
2022/07/02 08:20:47;;;;;;;3.22;1.55;;;;;;;24.48;33.85;101334.00;1664591;84;21510;-43
2022/07/02 08:23:14;;;;;;;1.80;1.35;;;;;;;24.72;34.39;101331.55;1665391;84;20996;-44
2022/07/02 08:25:41;;;;;;;6.30;1.70;;;;;;;24.82;32.60;101335.81;1657494;85;21375;-44
2022/07/02 08:28:10;;;;;;;4.12;1.30;;;;;;;24.92;31.44;101326.34;1668101;84;21016;-44
2022/07/02 08:30:36;;;;;;;5.28;1.40;;;;;;;24.68;30.40;101323.45;1655821;84;20973;-44
2022/07/02 08:33:03;;;;;;;5.40;2.40;;;;;;;24.49;29.31;101335.70;1636508;86;21605;-44
2022/07/02 08:35:30;;;;;;;7.83;1.82;;;;;;;24.44;31.55;101337.79;1661712;84;21012;-43
2022/07/02 08:37:57;;;;;;;5.37;1.77;;;;;;;24.61;30.15;101336.70;1662135;84;21755;-44
2022/07/02 08:40:27;;;;;;;7.72;1.50;;;;;;;24.70;30.07;101332.63;1667799;85;20957;-43
2022/07/02 08:42:53;;;;;;;8.75;1.72;;;;;;;24.92;31.82;101323.69;1671240;84;21601;-44
2022/07/02 08:45:22;;;;;;;6.03;1.62;;;;;;;25.20;30.92;101329.80;1665303;84;21035;-43
2022/07/02 08:47:53;;;;;;;7.50;1.70;;;;;;;25.32;29.71;101327.27;1652201;85;21501;-44
2022/07/02 08:50:21;;;;;;;4.97;1.70;;;;;;;25.29;31.36;101324.37;1671292;84;21208;-44
2022/07/02 08:55:44;;;;;;;6.37;1.82;;;;;;;25.71;31.69;101316.26;1797649;79;22586;-43
2022/07/02 08:58:11;;;;;;;8.08;3.15;;;;;;;25.81;29.73;101321.28;1739854;80;21492;-43
2022/07/02 09:00:38;;;;;;;7.85;1.50;;;;;;;25.85;30.20;101317.95;1747655;80;21300;-43
2022/07/02 09:03:04;;;;;;;8.18;2.10;;;;;;;25.63;30.94;101323.41;1706712;83;20892;-43
2022/07/02 09:05:32;;;;;;;8.93;1.82;;;;;;;25.52;31.80;101313.55;1699140;83;21046;-43
2022/07/02 09:07:59;;;;;;;15.38;2.10;;;;;;;25.39;31.20;101310.02;1706936;83;20963;-43
2022/07/02 09:10:27;;;;;;;6.50;1.50;;;;;;;25.37;31.37;101305.28;1714311;83;20944;-43
2022/07/02 09:12:55;;;;;;;3.58;1.60;;;;;;;25.44;30.80;101305.71;1696312;83;21868;-43
2022/07/02 09:15:22;;;;;;;5.17;1.37;;;;;;;25.44;29.87;101299.95;1710478;83;21018;-43
2022/07/02 09:17:49;;;;;;;2.40;1.47;;;;;;;25.48;31.22;101300.14;1704406;83;20991;-43
2022/07/02 09:20:16;;;;;;;5.33;1.25;;;;;;;25.67;29.88;101298.88;1693453;83;20995;-43
2022/07/02 09:22:48;;;;;;;5.10;1.98;;;;;;;25.74;29.18;101301.46;1712201;82;20940;-43
2022/07/02 09:25:18;;;;;;;3.85;1.70;;;;;;;25.65;29.28;101304.77;1704757;82;21960;-43
2022/07/02 09:27:45;;;;;;;7.40;1.75;;;;;;;25.61;30.58;101302.80;1709959;82;21564;-43
2022/07/02 09:30:15;;;;;;;1.60;1.50;;;;;;;25.68;30.64;101300.57;1697773;82;21071;-43
2022/07/02 09:32:44;;;;;;;7.35;1.50;;;;;;;25.53;29.20;101305.97;1694225;82;20975;-43
2022/07/02 09:35:21;;;;;;;6.87;1.40;;;;;;;25.32;28.97;101298.98;1713726;82;21038;-43
2022/07/02 09:37:50;;;;;;;4.78;1.60;;;;;;;25.28;28.70;101304.59;1705047;82;21274;-43
2022/07/02 09:40:17;;;;;;;6.05;1.32;;;;;;;25.29;29.30;101310.25;1709352;82;21576;-43
2022/07/02 09:42:48;;;;;;;4.22;1.62;;;;;;;25.48;29.58;101301.47;1703510;83;21070;-44
2022/07/02 09:45:16;;;;;;;11.38;1.75;;;;;;;25.78;30.24;101289.69;1699682;84;21078;-43
2022/07/02 09:47:51;;;;;;;8.33;1.60;;;;;;;26.19;30.13;101306.80;1694046;82;21066;-44
2022/07/02 09:50:19;;;;;;;7.45;1.50;;;;;;;26.33;29.61;101296.02;1686824;84;21825;-43
2022/07/02 09:52:55;;;;;;;3.05;2.22;;;;;;;26.54;29.39;101298.07;1693449;83;21510;-43
2022/07/02 09:55:25;;;;;;;3.25;1.80;;;;;;;26.71;29.40;101296.83;1680919;83;20940;-44
2022/07/02 09:57:54;;;;;;;3.08;1.82;;;;;;;26.78;29.79;101301.20;1680981;84;21000;-42
2022/07/02 10:00:22;;;;;;;7.80;1.80;;;;;;;26.65;28.83;101298.15;1681114;84;21034;-43
2022/07/02 10:02:54;;;;;;;2.67;1.95;;;;;;;26.64;28.92;101294.27;1676586;83;21057;-43
2022/07/02 10:05:27;;;;;;;3.75;1.75;;;;;;;26.52;27.20;101286.72;1683297;84;21035;-43
2022/07/02 10:07:57;;;;;;;3.90;1.85;;;;;;;26.36;27.70;101290.98;1679056;84;21023;-44
2022/07/02 10:10:35;;;;;;;3.20;1.98;;;;;;;26.44;27.95;101286.45;1678564;84;20964;-44
2022/07/02 10:12:58;;;;;;;4.40;2.20;;;;;;;26.50;27.84;101292.62;1682418;84;21091;-42
2022/07/02 10:15:29;;;;;;;3.42;1.35;;;;;;;26.39;28.25;101298.72;1672817;84;22259;-45
2022/07/02 10:17:57;;;;;;;5.53;4.10;;;;;;;26.21;27.16;101285.81;1701192;82;20933;-44
2022/07/02 10:20:23;;;;;;;15.05;1.70;;;;;;;26.01;27.70;101292.52;1734411;81;21019;-44
2022/07/02 10:22:51;;;;;;;3.30;1.25;;;;;;;26.11;26.52;101294.87;1727342;82;20956;-46
2022/07/02 10:25:18;;;;;;;3.35;1.37;;;;;;;25.97;28.04;101292.38;1732728;81;21015;-43
2022/07/02 10:27:46;;;;;;;5.53;1.60;;;;;;;26.04;27.90;101300.25;1698126;82;21238;-44
2022/07/02 10:30:19;;;;;;;5.87;1.67;;;;;;;26.14;27.06;101286.33;1716177;82;20948;-44
2022/07/02 10:33:00;;;;;;;2.50;1.00;;;;;;;26.45;28.19;101290.30;1733429;82;20956;-44
2022/07/02 10:35:27;;;;;;;7.72;1.20;;;;;;;26.61;26.78;101290.02;1733255;82;21525;-43
2022/07/02 10:37:58;;;;;;;15.65;2.67;;;;;;;26.61;25.96;101293.17;1734377;82;21510;-43
2022/07/02 10:40:24;;;;;;;11.63;2.22;;;;;;;26.70;27.44;101297.78;1715908;82;21132;-44
2022/07/02 10:42:51;;;;;;;26.93;4.05;;;;;;;26.95;27.40;101296.85;1725110;82;21506;-42
2022/07/02 10:45:22;;;;;;;3.15;1.90;;;;;;;27.06;27.80;101284.56;1720365;82;21007;-45
2022/07/02 10:48:05;;;;;;;4.37;1.25;;;;;;;27.21;27.76;101284.73;1722319;81;21506;-42
2022/07/02 10:50:40;;;;;;;10.95;1.80;;;;;;;27.38;27.05;101281.24;1725855;82;20971;-43
2022/07/02 10:53:24;;;;;;;7.75;2.37;;;;;;;27.63;27.14;101278.03;1728911;82;20986;-43
2022/07/02 10:55:58;;;;;;;6.30;1.72;;;;;;;27.63;27.46;101282.02;1713541;82;21474;-44
2022/07/02 10:58:32;;;;;;;5.92;1.42;;;;;;;27.61;27.95;101284.82;1717133;82;20893;-43
2022/07/02 11:01:18;;;;;;;8.00;1.47;;;;;;;27.86;27.59;101270.06;1714484;82;20984;-43
2022/07/02 11:04:02;;;;;;;3.72;1.22;;;;;;;27.87;27.13;101279.73;1714185;82;21635;-44
2022/07/02 11:06:32;;;;;;;2.70;1.10;;;;;;;27.73;25.50;101275.50;1708751;82;21320;-43
2022/07/02 11:09:03;;;;;;;19.50;2.25;;;;;;;27.62;26.18;101282.52;1711367;82;21037;-42
2022/07/02 11:11:39;;;;;;;8.03;1.50;;;;;;;27.53;27.05;101274.78;1708792;82;20948;-44
2022/07/02 11:14:08;;;;;;;7.90;1.60;;;;;;;27.66;27.85;101275.99;1713030;82;21039;-44
2022/07/02 11:16:40;;;;;;;19.55;2.50;;;;;;;27.87;28.04;101267.30;1727233;82;21057;-44
2022/07/02 11:19:17;;;;;;;10.88;1.87;;;;;;;28.00;27.01;101279.12;1720401;82;21527;-44
2022/07/02 11:21:45;;;;;;;16.55;1.20;;;;;;;27.91;25.80;101274.52;1707542;82;21015;-44
2022/07/02 11:24:14;;;;;;;5.80;1.30;;;;;;;27.99;25.58;101272.59;1717431;81;20940;-44
2022/07/02 11:26:42;;;;;;;5.50;2.15;;;;;;;28.02;25.35;101270.53;1714889;82;21510;-44
2022/07/02 11:29:09;;;;;;;6.12;1.35;;;;;;;27.90;25.97;101266.19;1707821;82;21027;-44
2022/07/02 11:31:37;;;;;;;5.33;2.60;;;;;;;27.59;26.44;101271.27;1707174;82;22067;-44
2022/07/02 11:34:04;;;;;;;8.58;1.87;;;;;;;27.45;27.36;101269.19;1708007;82;21043;-44
2022/07/02 11:36:31;;;;;;;1.42;1.32;;;;;;;27.47;26.37;101276.56;1722314;82;20981;-44